sensor_id;sensor_type;location;lat;lon;timestamp;pressure;altitude;pressure_sealevel;temperature;humidity
70015;BME280;57358;51.094;6.760;2023-01-27T00:00:37;101580.22;;;2.30;100.00
70015;BME280;57358;51.094;6.760;2023-01-27T00:03:04;101717.22;;;3.16;100.00
70015;BME280;57358;51.094;6.760;2023-01-27T00:05:30;101619.84;;;2.62;100.00
70015;BME280;57358;51.094;6.760;2023-01-27T00:07:56;101753.53;;;3.16;100.00
70015;BME280;57358;51.094;6.760;2023-01-27T00:10:24;101654.31;;;2.85;100.00
70015;BME280;57358;51.094;6.760;2023-01-27T00:12:51;101716.34;;;3.24;100.00
70015;BME280;57358;51.094;6.760;2023-01-27T00:15:37;101649.19;;;2.65;100.00
70015;BME280;57358;51.094;6.760;2023-01-27T00:18:03;101670.69;;;2.92;100.00
70015;BME280;57358;51.094;6.760;2023-01-27T00:20:30;101544.94;;;2.02;100.00
70015;BME280;57358;51.094;6.760;2023-01-27T00:23:18;101720.72;;;3.15;100.00
70015;BME280;57358;51.094;6.760;2023-01-27T00:26:06;101721.53;;;3.24;100.00
70015;BME280;57358;51.094;6.760;2023-01-27T00:28:34;101711.19;;;3.17;100.00
70015;BME280;57358;51.094;6.760;2023-01-27T00:31:02;101727.56;;;3.26;100.00
70015;BME280;57358;51.094;6.760;2023-01-27T00:33:29;101645.66;;;2.80;100.00
70015;BME280;57358;51.094;6.760;2023-01-27T00:36:04;101730.16;;;3.29;100.00
70015;BME280;57358;51.094;6.760;2023-01-27T00:38:33;101718.94;;;3.22;100.00
70015;BME280;57358;51.094;6.760;2023-01-27T00:41:00;101709.44;;;3.19;100.00
70015;BME280;57358;51.094;6.760;2023-01-27T00:43:50;101723.16;;;3.42;100.00
70015;BME280;57358;51.094;6.760;2023-01-27T00:46:18;101643.94;;;2.87;100.00
70015;BME280;57358;51.094;6.760;2023-01-27T00:48:45;101601.72;;;2.57;100.00
70015;BME280;57358;51.094;6.760;2023-01-27T00:51:12;101677.56;;;2.96;100.00
70015;BME280;57358;51.094;6.760;2023-01-27T00:53:39;101739.69;;;3.25;100.00
70015;BME280;57358;51.094;6.760;2023-01-27T00:56:06;101729.34;;;3.17;100.00
70015;BME280;57358;51.094;6.760;2023-01-27T00:58:33;101743.13;;;3.26;100.00
70015;BME280;57358;51.094;6.760;2023-01-27T01:01:02;101634.53;;;2.58;100.00
70015;BME280;57358;51.094;6.760;2023-01-27T01:03:30;101557.91;;;2.03;100.00
70015;BME280;57358;51.094;6.760;2023-01-27T01:06:02;101741.47;;;3.11;100.00
70015;BME280;57358;51.094;6.760;2023-01-27T01:08:30;101741.38;;;3.28;100.00
70015;BME280;57358;51.094;6.760;2023-01-27T01:10:57;101626.81;;;2.47;100.00
70015;BME280;57358;51.094;6.760;2023-01-27T01:13:24;101784.63;;;3.26;100.00
70015;BME280;57358;51.094;6.760;2023-01-27T01:15:53;101669.91;;;2.73;100.00
70015;BME280;57358;51.094;6.760;2023-01-27T01:18:20;101771.69;;;3.21;100.00
70015;BME280;57358;51.094;6.760;2023-01-27T01:20:46;101719.91;;;2.96;100.00
70015;BME280;57358;51.094;6.760;2023-01-27T01:23:14;101719.09;;;2.93;100.00
70015;BME280;57358;51.094;6.760;2023-01-27T01:25:41;101769.06;;;3.23;100.00
70015;BME280;57358;51.094;6.760;2023-01-27T01:28:08;101758.75;;;3.10;100.00
70015;BME280;57358;51.094;6.760;2023-01-27T01:30:36;101773.44;;;3.14;100.00
70015;BME280;57358;51.094;6.760;2023-01-27T01:33:03;101781.25;;;3.13;100.00
70015;BME280;57358;51.094;6.760;2023-01-27T01:35:29;101726.94;;;2.73;100.00
70015;BME280;57358;51.094;6.760;2023-01-27T01:37:56;101663.97;;;2.38;100.00
70015;BME280;57358;51.094;6.760;2023-01-27T01:40:22;101729.53;;;2.68;100.00
70015;BME280;57358;51.094;6.760;2023-01-27T01:47:59;101800.28;;;2.98;100.00
70015;BME280;57358;51.094;6.760;2023-01-27T01:50:29;101796.88;;;2.93;100.00
70015;BME280;57358;51.094;6.760;2023-01-27T01:52:56;101727.00;;;2.39;100.00
70015;BME280;57358;51.094;6.760;2023-01-27T01:55:23;101688.19;;;2.21;100.00
70015;BME280;57358;51.094;6.760;2023-01-27T01:57:50;101739.94;;;2.50;100.00
70015;BME280;57358;51.094;6.760;2023-01-27T02:00:17;101630.41;;;1.83;100.00
70015;BME280;57358;51.094;6.760;2023-01-27T02:02:44;101796.88;;;2.93;100.00
70015;BME280;57358;51.094;6.760;2023-01-27T02:05:20;101807.25;;;2.91;100.00
70015;BME280;57358;51.094;6.760;2023-01-27T02:08:15;101807.22;;;2.99;100.00
70015;BME280;57358;51.094;6.760;2023-01-27T02:10:42;101808.06;;;2.96;100.00
70015;BME280;57358;51.094;6.760;2023-01-27T02:13:09;101780.50;;;2.77;100.00
70015;BME280;57358;51.094;6.760;2023-01-27T02:15:37;101754.63;;;2.55;100.00
70015;BME280;57358;51.094;6.760;2023-01-27T02:18:03;101603.69;;;1.76;100.00
70015;BME280;57358;51.094;6.760;2023-01-27T02:20:43;101811.56;;;2.97;100.00
70015;BME280;57358;51.094;6.760;2023-01-27T02:26:15;101808.09;;;2.93;100.00
70015;BME280;57358;51.094;6.760;2023-01-27T02:28:43;101723.53;;;2.40;100.00
70015;BME280;57358;51.094;6.760;2023-01-27T02:31:09;101701.13;;;2.24;100.00
70015;BME280;57358;51.094;6.760;2023-01-27T02:33:36;101667.50;;;2.02;100.00
70015;BME280;57358;51.094;6.760;2023-01-27T02:36:06;101740.81;;;2.41;100.00
70015;BME280;57358;51.094;6.760;2023-01-27T02:39:04;101821.94;;;2.80;100.00
70015;BME280;57358;51.094;6.760;2023-01-27T02:41:34;101824.53;;;2.78;100.00
70015;BME280;57358;51.094;6.760;2023-01-27T02:44:02;101822.81;;;2.74;100.00
70015;BME280;57358;51.094;6.760;2023-01-27T02:46:29;101787.44;;;2.30;100.00
70015;BME280;57358;51.094;6.760;2023-01-27T02:48:56;101812.47;;;2.48;100.00
70015;BME280;57358;51.094;6.760;2023-01-27T02:51:22;101755.50;;;2.08;100.00
70015;BME280;57358;51.094;6.760;2023-01-27T02:53:49;101789.19;;;2.19;100.00
70015;BME280;57358;51.094;6.760;2023-01-27T02:56:15;101714.97;;;1.86;100.00
70015;BME280;57358;51.094;6.760;2023-01-27T02:58:42;101853.06;;;2.52;100.00
70015;BME280;57358;51.094;6.760;2023-01-27T03:01:08;101824.56;;;2.40;100.00
70015;BME280;57358;51.094;6.760;2023-01-27T03:03:35;101845.28;;;2.52;100.00
70015;BME280;57358;51.094;6.760;2023-01-27T03:06:01;101809.91;;;2.30;100.00
70015;BME280;57358;51.094;6.760;2023-01-27T03:08:28;101584.69;;;0.99;100.00
70015;BME280;57358;51.094;6.760;2023-01-27T03:10:54;101754.66;;;1.97;100.00
70015;BME280;57358;51.094;6.760;2023-01-27T03:13:25;101818.53;;;2.36;100.00
70015;BME280;57358;51.094;6.760;2023-01-27T03:15:53;101853.97;;;2.47;100.00
70015;BME280;57358;51.094;6.760;2023-01-27T03:18:40;101777.97;;;2.05;100.00
70015;BME280;57358;51.094;6.760;2023-01-27T03:21:06;101828.03;;;2.28;100.00
70015;BME280;57358;51.094;6.760;2023-01-27T03:23:33;101717.53;;;1.70;100.00
70015;BME280;57358;51.094;6.760;2023-01-27T03:26:01;101746.91;;;1.85;100.00
70015;BME280;57358;51.094;6.760;2023-01-27T03:28:27;101758.97;;;1.99;100.00
70015;BME280;57358;51.094;6.760;2023-01-27T03:31:01;101850.47;;;2.46;100.00
70015;BME280;57358;51.094;6.760;2023-01-27T03:33:28;101707.16;;;1.64;100.00
70015;BME280;57358;51.094;6.760;2023-01-27T03:35:55;101752.94;;;1.87;100.00
70015;BME280;57358;51.094;6.760;2023-01-27T03:38:40;101685.59;;;1.37;100.00
70015;BME280;57358;51.094;6.760;2023-01-27T03:41:25;101801.28;;;2.03;100.00
70015;BME280;57358;51.094;6.760;2023-01-27T03:44:10;101627.75;;;0.89;100.00
70015;BME280;57358;51.094;6.760;2023-01-27T03:46:55;101797.78;;;1.81;100.00
70015;BME280;57358;51.094;6.760;2023-01-27T03:49:21;101717.50;;;1.35;100.00
70015;BME280;57358;51.094;6.760;2023-01-27T03:51:48;101788.25;;;1.62;100.00
70015;BME280;57358;51.094;6.760;2023-01-27T03:54:14;101700.19;;;1.14;100.00
70015;BME280;57358;51.094;6.760;2023-01-27T03:56:40;101720.91;;;1.28;100.00
70015;BME280;57358;51.094;6.760;2023-01-27T03:59:07;101864.28;;;2.14;100.00
70015;BME280;57358;51.094;6.760;2023-01-27T04:01:33;101764.09;;;1.59;100.00
70015;BME280;57358;51.094;6.760;2023-01-27T04:04:00;101620.81;;;0.77;100.00
70015;BME280;57358;51.094;6.760;2023-01-27T04:06:45;101651.88;;;0.96;100.00
70015;BME280;57358;51.094;6.760;2023-01-27T04:09:20;101826.28;;;2.01;100.00
70015;BME280;57358;51.094;6.760;2023-01-27T04:11:47;101823.69;;;1.87;100.00
70015;BME280;57358;51.094;6.760;2023-01-27T04:14:36;101791.72;;;1.77;100.00
70015;BME280;57358;51.094;6.760;2023-01-27T04:17:14;101781.31;;;1.48;100.00
70015;BME280;57358;51.094;6.760;2023-01-27T04:19:42;101796.03;;;1.68;100.00
70015;BME280;57358;51.094;6.760;2023-01-27T04:22:10;101857.38;;;2.12;100.00
70015;BME280;57358;51.094;6.760;2023-01-27T04:24:37;101736.41;;;1.28;100.00
70015;BME280;57358;51.094;6.760;2023-01-27T04:27:06;101815.03;;;1.81;100.00
70015;BME280;57358;51.094;6.760;2023-01-27T04:29:35;101882.41;;;2.16;100.00
70015;BME280;57358;51.094;6.760;2023-01-27T04:32:03;101858.22;;;2.08;100.00
70015;BME280;57358;51.094;6.760;2023-01-27T04:34:31;101840.09;;;1.95;100.00
70015;BME280;57358;51.094;6.760;2023-01-27T04:36:58;101882.44;;;2.30;100.00
70015;BME280;57358;51.094;6.760;2023-01-27T04:39:25;101887.59;;;2.24;100.00
70015;BME280;57358;51.094;6.760;2023-01-27T04:41:52;101841.81;;;1.93;100.00
70015;BME280;57358;51.094;6.760;2023-01-27T04:44:18;101840.06;;;1.78;100.00
70015;BME280;57358;51.094;6.760;2023-01-27T04:46:48;101896.22;;;2.12;100.00
70015;BME280;57358;51.094;6.760;2023-01-27T04:49:15;101827.97;;;1.73;100.00
70015;BME280;57358;51.094;6.760;2023-01-27T04:51:41;101807.16;;;1.48;100.00
70015;BME280;57358;51.094;6.760;2023-01-27T04:54:08;101922.91;;;1.92;100.00
70015;BME280;57358;51.094;6.760;2023-01-27T04:56:39;101899.59;;;1.88;100.00
70015;BME280;57358;51.094;6.760;2023-01-27T04:59:09;101912.50;;;1.80;100.00
70015;BME280;57358;51.094;6.760;2023-01-27T05:01:36;101814.84;;;1.19;100.00
70015;BME280;57358;51.094;6.760;2023-01-27T05:04:03;101911.69;;;1.83;100.00
70015;BME280;57358;51.094;6.760;2023-01-27T05:06:29;101713.78;;;0.67;100.00
70015;BME280;57358;51.094;6.760;2023-01-27T05:08:56;101917.72;;;1.88;100.00
70015;BME280;57358;51.094;6.760;2023-01-27T05:11:22;101934.09;;;1.88;100.00
70015;BME280;57358;51.094;6.760;2023-01-27T05:13:49;101813.09;;;1.19;100.00
70015;BME280;57358;51.094;6.760;2023-01-27T05:16:20;101855.50;;;1.55;100.00
70015;BME280;57358;51.094;6.760;2023-01-27T05:18:49;101928.97;;;1.96;100.00
70015;BME280;57358;51.094;6.760;2023-01-27T05:21:18;101929.88;;;2.03;100.00
70015;BME280;57358;51.094;6.760;2023-01-27T05:23:45;101789.84;;;1.19;100.00
70015;BME280;57358;51.094;6.760;2023-01-27T05:26:21;101929.88;;;2.03;100.00
70015;BME280;57358;51.094;6.760;2023-01-27T05:28:49;101874.50;;;1.68;100.00
70015;BME280;57358;51.094;6.760;2023-01-27T05:31:21;101823.53;;;1.39;100.00
70015;BME280;57358;51.094;6.760;2023-01-27T05:33:50;101943.69;;;2.08;100.00
70015;BME280;57358;51.094;6.760;2023-01-27T05:36:18;101947.13;;;2.10;100.00
70015;BME280;57358;51.094;6.760;2023-01-27T05:38:45;101945.41;;;2.12;100.00
70015;BME280;57358;51.094;6.760;2023-01-27T05:41:13;101952.31;;;2.16;100.00
70015;BME280;57358;51.094;6.760;2023-01-27T05:43:41;101935.91;;;2.12;100.00
70015;BME280;57358;51.094;6.760;2023-01-27T05:46:17;101963.56;;;2.19;100.00
70015;BME280;57358;51.094;6.760;2023-01-27T05:48:46;101956.69;;;2.23;100.00
70015;BME280;57358;51.094;6.760;2023-01-27T05:51:15;101878.00;;;1.84;100.00
70015;BME280;57358;51.094;6.760;2023-01-27T05:53:42;101977.44;;;2.31;100.00
70015;BME280;57358;51.094;6.760;2023-01-27T05:56:11;101846.91;;;1.61;100.00
70015;BME280;57358;51.094;6.760;2023-01-27T05:58:38;101957.53;;;2.28;100.00
70015;BME280;57358;51.094;6.760;2023-01-27T06:03:39;101958.41;;;2.30;100.00
70015;BME280;57358;51.094;6.760;2023-01-27T06:06:07;101966.19;;;2.32;100.00
70015;BME280;57358;51.094;6.760;2023-01-27T06:08:35;101846.03;;;1.59;100.00
70015;BME280;57358;51.094;6.760;2023-01-27T06:11:02;101738.06;;;0.96;100.00
70015;BME280;57358;51.094;6.760;2023-01-27T06:13:29;101970.50;;;2.36;100.00
70015;BME280;57358;51.094;6.760;2023-01-27T06:15:55;101868.50;;;1.69;100.00
70015;BME280;57358;51.094;6.760;2023-01-27T06:18:22;101974.84;;;2.40;100.00
70015;BME280;57358;51.094;6.760;2023-01-27T06:20:49;101890.09;;;1.88;100.00
70015;BME280;57358;51.094;6.760;2023-01-27T06:23:16;101889.28;;;1.91;100.00
70015;BME280;57358;51.094;6.760;2023-01-27T06:25:46;101871.94;;;1.74;100.00
70015;BME280;57358;51.094;6.760;2023-01-27T06:28:13;101934.19;;;2.14;100.00
70015;BME280;57358;51.094;6.760;2023-01-27T06:30:54;101945.47;;;2.27;100.00
70015;BME280;57358;51.094;6.760;2023-01-27T06:33:21;101959.25;;;2.20;100.00
70015;BME280;57358;51.094;6.760;2023-01-27T06:35:47;101923.81;;;2.04;100.00
70015;BME280;57358;51.094;6.760;2023-01-27T06:38:13;101977.44;;;2.40;100.00
70015;BME280;57358;51.094;6.760;2023-01-27T06:40:40;101853.84;;;1.73;100.00
70015;BME280;57358;51.094;6.760;2023-01-27T06:43:11;101966.19;;;2.36;100.00
70015;BME280;57358;51.094;6.760;2023-01-27T06:45:39;101924.69;;;2.03;100.00
70015;BME280;57358;51.094;6.760;2023-01-27T06:48:05;101880.59;;;1.76;100.00
70015;BME280;57358;51.094;6.760;2023-01-27T06:50:33;101992.09;;;2.38;100.00
70015;BME280;57358;51.094;6.760;2023-01-27T06:53:03;101974.81;;;2.26;100.00
70015;BME280;57358;51.094;6.760;2023-01-27T06:55:31;101963.56;;;2.18;100.00
70015;BME280;57358;51.094;6.760;2023-01-27T06:57:57;101997.31;;;2.46;100.00
70015;BME280;57358;51.094;6.760;2023-01-27T07:00:24;101979.16;;;2.35;100.00
70015;BME280;57358;51.094;6.760;2023-01-27T07:02:50;101882.28;;;1.70;100.00
70015;BME280;57358;51.094;6.760;2023-01-27T07:05:19;101916.88;;;1.96;100.00
70015;BME280;57358;51.094;6.760;2023-01-27T07:07:45;102005.94;;;2.46;100.00
70015;BME280;57358;51.094;6.760;2023-01-27T07:10:11;101880.59;;;1.78;100.00
70015;BME280;57358;51.094;6.760;2023-01-27T07:12:38;101917.78;;;2.03;100.00
70015;BME280;57358;51.094;6.760;2023-01-27T07:15:06;101934.19;;;2.07;100.00
70015;BME280;57358;51.094;6.760;2023-01-27T07:17:34;102024.97;;;2.57;100.00
70015;BME280;57358;51.094;6.760;2023-01-27T07:20:02;101957.50;;;2.10;100.00
70015;BME280;57358;51.094;6.760;2023-01-27T07:22:29;102018.06;;;2.53;100.00
70015;BME280;57358;51.094;6.760;2023-01-27T07:24:55;101970.50;;;2.25;100.00
70015;BME280;57358;51.094;6.760;2023-01-27T07:27:23;102022.38;;;2.62;100.00
70015;BME280;57358;51.094;6.760;2023-01-27T07:29:50;102005.09;;;2.49;100.00
70015;BME280;57358;51.094;6.760;2023-01-27T07:32:17;102013.75;;;2.62;100.00
70015;BME280;57358;51.094;6.760;2023-01-27T07:34:43;101952.38;;;2.31;100.00
70015;BME280;57358;51.094;6.760;2023-01-27T07:37:10;101919.53;;;2.15;100.00
70015;BME280;57358;51.094;6.760;2023-01-27T07:39:36;102022.41;;;2.76;100.00
70015;BME280;57358;51.094;6.760;2023-01-27T07:42:04;102025.88;;;2.78;100.00
70015;BME280;57358;51.094;6.760;2023-01-27T07:44:31;102022.44;;;2.79;100.00
70015;BME280;57358;51.094;6.760;2023-01-27T07:46:58;102023.28;;;2.79;100.00
70015;BME280;57358;51.094;6.760;2023-01-27T07:49:25;102014.63;;;2.74;100.00
70015;BME280;57358;51.094;6.760;2023-01-27T07:51:53;102026.75;;;2.82;100.00
70015;BME280;57358;51.094;6.760;2023-01-27T07:54:19;101943.75;;;2.34;100.00
70015;BME280;57358;51.094;6.760;2023-01-27T07:56:46;101919.50;;;2.12;100.00
70015;BME280;57358;51.094;6.760;2023-01-27T07:59:12;102025.03;;;2.84;100.00
70015;BME280;57358;51.094;6.760;2023-01-27T08:01:39;102005.16;;;2.81;100.00
70015;BME280;57358;51.094;6.760;2023-01-27T08:04:06;101999.09;;;2.71;100.00
70015;BME280;57358;51.094;6.760;2023-01-27T08:06:33;101944.59;;;2.30;100.00
70015;BME280;57358;51.094;6.760;2023-01-27T08:08:59;101950.63;;;2.30;100.00
70015;BME280;57358;51.094;6.760;2023-01-27T08:11:26;101953.25;;;2.41;100.00
70015;BME280;57358;51.094;6.760;2023-01-27T08:13:52;101853.00;;;1.78;100.00
70015;BME280;57358;51.094;6.760;2023-01-27T08:16:18;101803.72;;;1.46;100.00
70015;BME280;57358;51.094;6.760;2023-01-27T08:18:45;102058.72;;;2.90;100.00
70015;BME280;57358;51.094;6.760;2023-01-27T08:21:12;101983.50;;;2.50;100.00
70015;BME280;57358;51.094;6.760;2023-01-27T08:23:38;102026.72;;;2.72;100.00
70015;BME280;57358;51.094;6.760;2023-01-27T08:26:06;101982.66;;;2.57;100.00
70015;BME280;57358;51.094;6.760;2023-01-27T08:28:34;101983.50;;;2.62;100.00
70015;BME280;57358;51.094;6.760;2023-01-27T08:33:35;102044.91;;;2.94;100.00
70015;BME280;57358;51.094;6.760;2023-01-27T08:36:04;102010.31;;;2.83;100.00
70015;BME280;57358;51.094;6.760;2023-01-27T08:38:31;102034.56;;;2.97;100.00
70015;BME280;57358;51.094;6.760;2023-01-27T08:41:07;101835.75;;;1.79;100.00
70015;BME280;57358;51.094;6.760;2023-01-27T08:43:34;102043.22;;;3.05;100.00
70015;BME280;57358;51.094;6.760;2023-01-27T08:46:00;101963.63;;;2.56;100.00
70015;BME280;57358;51.094;6.760;2023-01-27T08:48:27;102040.59;;;3.10;100.00
70015;BME280;57358;51.094;6.760;2023-01-27T08:50:54;102004.28;;;3.02;100.00
70015;BME280;57358;51.094;6.760;2023-01-27T08:53:22;102032.81;;;3.22;100.00
70015;BME280;57358;51.094;6.760;2023-01-27T08:55:50;102038.88;;;3.26;100.00
70015;BME280;57358;51.094;6.760;2023-01-27T08:58:16;102008.63;;;3.11;100.00
70015;BME280;57358;51.094;6.760;2023-01-27T09:00:43;102036.28;;;3.23;100.00
70015;BME280;57358;51.094;6.760;2023-01-27T09:03:10;102006.00;;;3.00;100.00
70015;BME280;57358;51.094;6.760;2023-01-27T09:05:36;102044.06;;;3.27;100.00
70015;BME280;57358;51.094;6.760;2023-01-27T09:08:04;102023.31;;;3.13;100.00
70015;BME280;57358;51.094;6.760;2023-01-27T09:10:30;101992.19;;;3.01;100.00
70015;BME280;57358;51.094;6.760;2023-01-27T09:12:57;102044.94;;;3.42;100.00
70015;BME280;57358;51.094;6.760;2023-01-27T09:15:23;102011.22;;;3.31;100.00
70015;BME280;57358;51.094;6.760;2023-01-27T09:17:49;102023.28;;;3.36;100.00
70015;BME280;57358;51.094;6.760;2023-01-27T09:20:16;101869.50;;;2.50;100.00
70015;BME280;57358;51.094;6.760;2023-01-27T09:22:42;102045.78;;;3.57;100.00
70015;BME280;57358;51.094;6.760;2023-01-27T09:25:13;102006.00;;;3.26;100.00
70015;BME280;57358;51.094;6.760;2023-01-27T09:27:39;101951.56;;;3.08;100.00
70015;BME280;57358;51.094;6.760;2023-01-27T09:30:07;102066.50;;;3.76;100.00
70015;BME280;57358;51.094;6.760;2023-01-27T09:32:34;101991.31;;;3.36;100.00
70015;BME280;57358;51.094;6.760;2023-01-27T09:35:00;102064.75;;;3.87;100.00
70015;BME280;57358;51.094;6.760;2023-01-27T09:37:27;102072.53;;;3.92;100.00
70015;BME280;57358;51.094;6.760;2023-01-27T09:39:56;102069.09;;;3.84;100.00
70015;BME280;57358;51.094;6.760;2023-01-27T09:48:41;102085.56;;;3.81;100.00
70015;BME280;57358;51.094;6.760;2023-01-27T09:51:21;102083.81;;;3.83;100.00
70015;BME280;57358;51.094;6.760;2023-01-27T09:54:02;102087.25;;;3.82;100.00
70015;BME280;57358;51.094;6.760;2023-01-27T10:02:10;101891.06;;;2.84;100.00
70015;BME280;57358;51.094;6.760;2023-01-27T10:10:56;102088.09;;;4.07;100.00
70015;BME280;57358;51.094;6.760;2023-01-27T10:13:38;102095.00;;;4.07;100.00
70015;BME280;57358;51.094;6.760;2023-01-27T10:16:21;102085.47;;;4.09;100.00
70015;BME280;57358;51.094;6.760;2023-01-27T10:19:23;102081.16;;;4.06;100.00
70015;BME280;57358;51.094;6.760;2023-01-27T10:27:46;102011.13;;;3.65;100.00
70015;BME280;57358;51.094;6.760;2023-01-27T10:30:34;101915.25;;;3.06;100.00
70015;BME280;57358;51.094;6.760;2023-01-27T10:33:17;101995.59;;;3.46;100.00
70015;BME280;57358;51.094;6.760;2023-01-27T10:36:07;102056.09;;;3.87;100.00
70015;BME280;57358;51.094;6.760;2023-01-27T10:38:46;102086.31;;;4.18;100.00
70015;BME280;57358;51.094;6.760;2023-01-27T10:44:15;102084.53;;;4.30;100.00
70015;BME280;57358;51.094;6.760;2023-01-27T10:49:46;102079.34;;;4.28;100.00
70015;BME280;57358;51.094;6.760;2023-01-27T10:52:18;102037.00;;;4.02;100.00
70015;BME280;57358;51.094;6.760;2023-01-27T10:55:49;102078.47;;;4.35;100.00
70015;BME280;57358;51.094;6.760;2023-01-27T10:57:58;102024.91;;;3.97;100.00
70015;BME280;57358;51.094;6.760;2023-01-27T11:00:39;102081.06;;;4.31;100.00
70015;BME280;57358;51.094;6.760;2023-01-27T11:03:43;102075.88;;;4.32;100.00
70015;BME280;57358;51.094;6.760;2023-01-27T11:06:17;102083.72;;;4.23;100.00
70015;BME280;57358;51.094;6.760;2023-01-27T11:08:49;102084.56;;;4.25;100.00
70015;BME280;57358;51.094;6.760;2023-01-27T11:11:19;102028.34;;;3.96;100.00
70015;BME280;57358;51.094;6.760;2023-01-27T11:22:21;102073.31;;;4.20;100.00
70015;BME280;57358;51.094;6.760;2023-01-27T11:24:57;102041.34;;;4.01;100.00
70015;BME280;57358;51.094;6.760;2023-01-27T11:27:38;102005.88;;;3.92;100.00
70015;BME280;57358;51.094;6.760;2023-01-27T11:30:36;101970.41;;;3.80;100.00
70015;BME280;57358;51.094;6.760;2023-01-27T11:33:26;101984.25;;;3.95;100.00
70015;BME280;57358;51.094;6.760;2023-01-27T11:35:54;102041.25;;;4.26;100.00
70015;BME280;57358;51.094;6.760;2023-01-27T11:38:21;102044.66;;;4.42;100.00
70015;BME280;57358;51.094;6.760;2023-01-27T11:40:50;102055.88;;;4.50;100.00
70015;BME280;57358;51.094;6.760;2023-01-27T11:43:23;102059.34;;;4.46;100.00
70015;BME280;57358;51.094;6.760;2023-01-27T11:45:56;101993.69;;;4.11;100.00
70015;BME280;57358;51.094;6.760;2023-01-27T11:48:34;102059.34;;;4.46;100.00
70015;BME280;57358;51.094;6.760;2023-01-27T11:51:02;102057.56;;;4.54;100.00
70015;BME280;57358;51.094;6.760;2023-01-27T11:53:30;101938.34;;;3.95;100.00
70015;BME280;57358;51.094;6.760;2023-01-27T11:56:09;102047.13;;;4.60;100.00
70015;BME280;57358;51.094;6.760;2023-01-27T11:58:49;102002.19;;;4.39;100.00
70015;BME280;57358;51.094;6.760;2023-01-27T12:01:23;102048.81;;;4.72;100.00
70015;BME280;57358;51.094;6.760;2023-01-27T12:04:04;102041.91;;;4.68;100.00
70015;BME280;57358;51.094;6.760;2023-01-27T12:09:34;102035.78;;;4.76;100.00
70015;BME280;57358;51.094;6.760;2023-01-27T12:14:35;102041.94;;;4.63;100.00
70015;BME280;57358;51.094;6.760;2023-01-27T12:17:02;102033.16;;;4.75;100.00
70015;BME280;57358;51.094;6.760;2023-01-27T12:19:34;101983.97;;;4.44;100.00
70015;BME280;57358;51.094;6.760;2023-01-27T12:22:07;101964.19;;;4.23;100.00
70015;BME280;57358;51.094;6.760;2023-01-27T12:24:38;101965.06;;;4.17;100.00
70015;BME280;57358;51.094;6.760;2023-01-27T12:27:06;102034.13;;;4.62;100.00
70015;BME280;57358;51.094;6.760;2023-01-27T12:29:43;102004.66;;;4.66;100.00
70015;BME280;57358;51.094;6.760;2023-01-27T12:32:21;101905.34;;;4.08;100.00
70015;BME280;57358;51.094;6.760;2023-01-27T12:34:51;102016.72;;;4.74;100.00
70015;BME280;57358;51.094;6.760;2023-01-27T12:37:26;102003.72;;;4.73;100.00
70015;BME280;57358;51.094;6.760;2023-01-27T12:39:57;101975.19;;;4.64;100.00
70015;BME280;57358;51.094;6.760;2023-01-27T12:42:41;101820.75;;;3.69;100.00
70015;BME280;57358;51.094;6.760;2023-01-27T12:45:20;101994.16;;;4.75;100.00
70015;BME280;57358;51.094;6.760;2023-01-27T12:48:28;101922.53;;;4.31;100.00
70015;BME280;57358;51.094;6.760;2023-01-27T12:53:18;101958.84;;;4.46;100.00
70015;BME280;57358;51.094;6.760;2023-01-27T12:56:08;101978.69;;;4.59;100.00
70015;BME280;57358;51.094;6.760;2023-01-27T12:58:42;101928.66;;;4.24;100.00
70015;BME280;57358;51.094;6.760;2023-01-27T13:03:57;101893.34;;;3.93;100.00
70015;BME280;57358;51.094;6.760;2023-01-27T13:06:32;101989.13;;;4.53;100.00
70015;BME280;57358;51.094;6.760;2023-01-27T13:09:01;101985.69;;;4.48;100.00
70015;BME280;57358;51.094;6.760;2023-01-27T13:11:38;101951.19;;;4.23;100.00
70015;BME280;57358;51.094;6.760;2023-01-27T13:14:07;101994.41;;;4.39;100.00
70015;BME280;57358;51.094;6.760;2023-01-27T13:16:34;101997.00;;;4.35;100.00
70015;BME280;57358;51.094;6.760;2023-01-27T13:19:15;101968.63;;;3.98;100.00
70015;BME280;57358;51.094;6.760;2023-01-27T13:21:45;101975.47;;;4.17;100.00
70015;BME280;57358;51.094;6.760;2023-01-27T13:24:33;102009.19;;;4.31;100.00
70015;BME280;57358;51.094;6.760;2023-01-27T13:27:02;101930.56;;;3.92;100.00
70015;BME280;57358;51.094;6.760;2023-01-27T13:29:32;101991.09;;;4.11;100.00
70015;BME280;57358;51.094;6.760;2023-01-27T13:32:23;101945.31;;;3.84;100.00
70015;BME280;57358;51.094;6.760;2023-01-27T13:37:42;102009.25;;;4.19;100.00
70015;BME280;57358;51.094;6.760;2023-01-27T13:40:12;102030.03;;;4.16;100.00
70015;BME280;57358;51.094;6.760;2023-01-27T13:43:04;102011.84;;;4.17;100.00
70015;BME280;57358;51.094;6.760;2023-01-27T13:45:45;101955.72;;;3.79;100.00
70015;BME280;57358;51.094;6.760;2023-01-27T13:48:31;101996.31;;;4.02;100.00
70015;BME280;57358;51.094;6.760;2023-01-27T13:51:10;102020.50;;;4.19;100.00
70015;BME280;57358;51.094;6.760;2023-01-27T13:53:38;102013.53;;;4.28;100.00
70015;BME280;57358;51.094;6.760;2023-01-27T14:01:59;102034.34;;;4.20;100.00
70015;BME280;57358;51.094;6.760;2023-01-27T14:07:39;102070.75;;;4.15;100.00
70015;BME280;57358;51.094;6.760;2023-01-27T14:10:28;102032.63;;;4.17;100.00
70015;BME280;57358;51.094;6.760;2023-01-27T14:21:01;102037.75;;;4.28;100.00
70015;BME280;57358;51.094;6.760;2023-01-27T14:31:36;102029.13;;;4.28;100.00
70015;BME280;57358;51.094;6.760;2023-01-27T14:37:01;101976.44;;;3.90;100.00
70015;BME280;57358;51.094;6.760;2023-01-27T14:42:09;102031.75;;;4.22;100.00
70015;BME280;57358;51.094;6.760;2023-01-27T14:44:51;102036.94;;;4.20;100.00